createdAt,value
2023-03-04T00:02:01.392Z,33.70
2023-03-04T00:04:32.521Z,25.90
2023-03-04T00:07:03.542Z,30.50
2023-03-04T00:09:34.451Z,28.20
2023-03-04T00:12:08.016Z,30.10
2023-03-04T00:14:39.146Z,30.00
2023-03-04T00:17:10.256Z,31.30
2023-03-04T00:19:41.210Z,33.90
2023-03-04T00:22:12.417Z,33.40
2023-03-04T00:24:43.446Z,29.50
2023-03-04T00:27:14.536Z,37.60
2023-03-04T00:29:45.672Z,41.60
2023-03-04T00:32:18.491Z,29.50
2023-03-04T00:34:49.649Z,32.80
2023-03-04T00:37:20.647Z,30.10
2023-03-04T00:39:54.464Z,38.90
2023-03-04T00:42:48.323Z,30.50
2023-03-04T00:45:22.403Z,30.00
2023-03-04T00:47:53.419Z,34.20
2023-03-04T00:50:24.621Z,30.50
2023-03-04T00:52:55.896Z,36.30
2023-03-04T00:55:28.183Z,38.40
2023-03-04T00:57:59.128Z,34.10
2023-03-04T01:00:30.147Z,33.50
2023-03-04T01:03:01.378Z,39.50
2023-03-04T01:05:34.412Z,37.70
2023-03-04T01:08:05.612Z,32.20
2023-03-04T01:10:36.875Z,36.40
2023-03-04T01:13:07.864Z,32.20
2023-03-04T01:15:38.943Z,35.20
2023-03-04T01:18:10.046Z,31.90
2023-03-04T01:20:41.197Z,35.00
2023-03-04T01:23:12.191Z,36.00
2023-03-04T01:25:43.255Z,36.80
2023-03-04T01:28:14.218Z,32.90
2023-03-04T01:30:45.431Z,38.50
2023-03-04T01:33:16.672Z,34.60
2023-03-04T01:35:47.679Z,37.20
2023-03-04T01:38:18.628Z,32.60
2023-03-04T01:40:50.201Z,34.30
2023-03-04T01:43:25.697Z,42.20
2023-03-04T01:45:59.033Z,36.50
2023-03-04T01:48:34.116Z,37.10
2023-03-04T01:51:06.021Z,35.90
2023-03-04T01:53:36.995Z,36.30
2023-03-04T01:56:16.946Z,38.40
2023-03-04T01:59:07.552Z,31.70
2023-03-04T02:01:39.770Z,35.90
2023-03-04T02:04:11.655Z,33.00
2023-03-04T02:06:43.539Z,35.30
2023-03-04T02:09:14.631Z,35.90
2023-03-04T02:11:47.175Z,36.50
2023-03-04T02:14:19.701Z,40.30
2023-03-04T02:16:51.764Z,42.20
2023-03-04T02:19:38.063Z,31.00
2023-03-04T02:22:09.516Z,38.70
2023-03-04T02:24:44.534Z,32.70
2023-03-04T02:29:45.435Z,33.40
2023-03-04T02:32:17.615Z,39.30
2023-03-04T02:34:51.988Z,39.60
2023-03-04T02:37:25.107Z,37.50
2023-03-04T02:39:57.460Z,31.40
2023-03-04T02:42:28.508Z,33.90
2023-03-04T02:45:03.524Z,32.30
2023-03-04T02:47:34.591Z,33.90
2023-03-04T02:50:06.200Z,39.30
2023-03-04T02:52:37.333Z,32.70
2023-03-04T02:55:10.552Z,33.90
2023-03-04T02:57:41.647Z,31.80
2023-03-04T03:00:14.887Z,34.00
2023-03-04T03:02:46.159Z,29.00
2023-03-04T03:05:18.028Z,36.70
2023-03-04T03:07:49.044Z,35.10
2023-03-04T03:10:20.366Z,35.00
2023-03-04T03:12:52.113Z,36.50
2023-03-04T03:15:23.975Z,32.50
2023-03-04T03:17:55.204Z,35.50
2023-03-04T03:20:26.183Z,38.80
2023-03-04T03:22:57.130Z,40.40
2023-03-04T03:25:28.321Z,36.50
2023-03-04T03:27:59.500Z,33.90
2023-03-04T03:30:31.125Z,39.50
2023-03-04T03:33:02.176Z,35.60
2023-03-04T03:35:33.230Z,34.80
2023-03-04T03:38:04.282Z,37.80
2023-03-04T03:40:35.263Z,36.00
2023-03-04T03:43:06.272Z,35.40
2023-03-04T03:45:37.249Z,39.60
2023-03-04T03:48:08.653Z,36.80
2023-03-04T03:50:39.720Z,33.80
2023-03-04T03:53:10.630Z,34.70
2023-03-04T03:55:41.936Z,34.80
2023-03-04T03:58:13.041Z,32.30
2023-03-04T04:00:46.291Z,36.80
2023-03-04T04:03:19.016Z,36.30
2023-03-04T04:05:50.124Z,35.50
2023-03-04T04:08:21.321Z,38.30
2023-03-04T04:10:52.205Z,29.60
2023-03-04T04:13:23.236Z,33.10
2023-03-04T04:15:56.793Z,39.00
2023-03-04T04:18:27.904Z,35.70
2023-03-04T04:20:58.834Z,32.20
2023-03-04T04:23:29.880Z,35.30
2023-03-04T04:26:01.119Z,33.20
2023-03-04T04:28:32.073Z,31.50
2023-03-04T04:31:03.059Z,29.90
2023-03-04T04:33:33.979Z,31.40
2023-03-04T04:36:05.828Z,33.90
2023-03-04T04:38:37.905Z,31.80
2023-03-04T04:41:16.134Z,30.50
2023-03-04T04:43:47.128Z,33.80
2023-03-04T04:46:19.306Z,30.00
2023-03-04T04:48:50.415Z,32.30
2023-03-04T04:51:21.418Z,29.10
2023-03-04T04:53:52.354Z,28.50
2023-03-04T04:56:26.501Z,28.00
2023-03-04T04:58:59.906Z,29.00
2023-03-04T05:01:30.914Z,30.00
2023-03-04T05:04:02.065Z,29.20
2023-03-04T05:06:33.087Z,28.50
2023-03-04T05:09:04.520Z,25.40
2023-03-04T05:11:35.890Z,25.80
2023-03-04T05:14:06.922Z,27.20
2023-03-04T05:16:38.020Z,28.90
2023-03-04T05:19:09.626Z,28.00
2023-03-04T05:21:40.760Z,32.80
2023-03-04T05:24:12.089Z,28.60
2023-03-04T05:26:43.543Z,32.40
2023-03-04T05:29:14.672Z,27.90
2023-03-04T05:31:45.578Z,36.70
2023-03-04T05:34:16.581Z,27.90
2023-03-04T05:36:48.444Z,27.60
2023-03-04T05:39:19.642Z,35.60
2023-03-04T05:41:50.637Z,26.20
2023-03-04T05:44:21.999Z,29.70
2023-03-04T05:46:53.348Z,29.70
2023-03-04T05:49:24.435Z,28.40
2023-03-04T05:51:55.345Z,25.70
2023-03-04T05:54:26.277Z,25.10
2023-03-04T05:56:57.387Z,26.80
2023-03-04T05:59:28.589Z,26.00
2023-03-04T06:01:59.580Z,32.00
2023-03-04T06:04:30.695Z,25.50
2023-03-04T06:07:01.743Z,26.40
2023-03-04T06:09:32.779Z,29.50
2023-03-04T06:12:03.823Z,26.70
2023-03-04T06:14:35.182Z,28.40
2023-03-04T06:17:06.225Z,25.50
2023-03-04T06:19:38.040Z,28.90
2023-03-04T06:22:09.227Z,23.90
2023-03-04T06:24:40.732Z,24.90
2023-03-04T06:27:11.905Z,22.30
2023-03-04T06:29:43.035Z,25.30
2023-03-04T06:32:14.274Z,25.80
2023-03-04T06:34:45.527Z,26.60
2023-03-04T06:37:16.490Z,28.30
2023-03-04T06:39:47.560Z,30.00
2023-03-04T06:42:18.486Z,31.00
2023-03-04T06:44:51.138Z,27.60
2023-03-04T06:47:22.148Z,28.10
2023-03-04T06:49:53.682Z,28.10
2023-03-04T06:52:25.332Z,26.90
2023-03-04T06:54:56.657Z,23.10
2023-03-04T06:57:27.849Z,27.50
2023-03-04T06:59:58.882Z,28.70
2023-03-04T07:02:30.498Z,26.20
2023-03-04T07:05:01.440Z,25.30
2023-03-04T07:07:32.413Z,27.90
2023-03-04T07:10:03.438Z,25.80
2023-03-04T07:12:34.884Z,25.50
2023-03-04T07:15:06.867Z,29.40
2023-03-04T07:17:37.864Z,24.10
2023-03-04T07:20:10.433Z,27.00
2023-03-04T07:22:41.397Z,25.90
2023-03-04T07:25:12.798Z,27.20
2023-03-04T07:27:43.749Z,24.50
2023-03-04T07:30:16.588Z,24.00
2023-03-04T07:32:47.738Z,25.50
2023-03-04T07:35:19.240Z,24.80
2023-03-04T07:37:50.740Z,25.60
2023-03-04T07:40:22.248Z,23.80
2023-03-04T07:42:55.304Z,23.20
2023-03-04T07:45:27.044Z,25.10
2023-03-04T07:47:58.598Z,22.30
2023-03-04T07:50:29.515Z,24.30
2023-03-04T07:53:00.305Z,21.30
2023-03-04T07:55:34.307Z,25.20
2023-03-04T07:58:05.678Z,23.10
2023-03-04T08:00:36.846Z,20.70
2023-03-04T08:03:07.864Z,22.70
2023-03-04T08:05:41.677Z,23.80
2023-03-04T08:08:12.965Z,19.00
2023-03-04T08:10:44.001Z,22.90
2023-03-04T08:13:17.753Z,23.00
2023-03-04T08:15:48.774Z,22.80
2023-03-04T08:18:21.618Z,19.00
2023-03-04T08:20:52.501Z,21.90
2023-03-04T08:23:23.932Z,25.10
2023-03-04T08:25:55.182Z,22.80
2023-03-04T08:28:26.016Z,21.90
2023-03-04T08:30:57.270Z,19.90
2023-03-04T08:33:32.114Z,22.10
2023-03-04T08:36:03.586Z,23.60
2023-03-04T08:38:55.815Z,20.40
2023-03-04T08:41:27.627Z,25.40
2023-03-04T08:43:58.862Z,22.50
2023-03-04T08:46:31.480Z,19.90
2023-03-04T08:49:03.010Z,22.20
2023-03-04T08:51:35.905Z,23.50
2023-03-04T08:54:08.406Z,22.90
2023-03-04T08:56:39.468Z,23.60
2023-03-04T08:59:13.684Z,23.50
2023-03-04T09:01:44.829Z,18.40
2023-03-04T09:04:15.946Z,26.30
2023-03-04T09:06:47.083Z,22.00
2023-03-04T09:09:19.247Z,21.00
2023-03-04T09:11:57.849Z,26.10
2023-03-04T09:14:28.949Z,20.40
2023-03-04T09:17:00.513Z,20.20
2023-03-04T09:19:32.237Z,22.40
2023-03-04T09:22:03.851Z,27.50
2023-03-04T09:24:34.673Z,21.00
2023-03-04T09:27:10.384Z,22.20
2023-03-04T09:29:42.568Z,22.70
2023-03-04T09:32:17.049Z,25.80
2023-03-04T09:34:48.496Z,19.00
2023-03-04T09:37:19.583Z,19.90
2023-03-04T09:39:51.547Z,24.90
2023-03-04T09:42:29.650Z,20.40
2023-03-04T09:45:01.580Z,25.80
2023-03-04T09:47:35.067Z,22.70
2023-03-04T09:50:09.619Z,21.80
2023-03-04T09:52:53.466Z,30.10
2023-03-04T09:55:29.605Z,18.60
2023-03-04T09:58:06.133Z,24.00
2023-03-04T10:00:40.899Z,21.50
2023-03-04T10:03:54.077Z,21.50
2023-03-04T10:06:54.740Z,26.20
2023-03-04T10:09:43.750Z,20.30
2023-03-04T10:12:19.481Z,22.50
2023-03-04T10:15:01.679Z,24.30
2023-03-04T10:17:38.323Z,20.20
2023-03-04T10:20:20.261Z,18.70
2023-03-04T10:23:12.411Z,19.60
2023-03-04T10:25:46.858Z,27.70
2023-03-04T10:28:32.405Z,26.80
2023-03-04T10:31:11.463Z,25.90
2023-03-04T10:33:43.531Z,16.90
2023-03-04T10:36:35.435Z,18.60
2023-03-04T10:39:12.343Z,21.60
2023-03-04T10:41:54.914Z,23.70
2023-03-04T10:44:26.909Z,22.10
2023-03-04T10:47:00.811Z,22.60
2023-03-04T10:49:34.379Z,20.80
2023-03-04T10:52:16.909Z,22.40
2023-03-04T10:54:55.523Z,22.60
2023-03-04T10:57:35.258Z,23.40
2023-03-04T11:00:32.091Z,20.20
2023-03-04T11:03:40.733Z,22.90
2023-03-04T11:06:20.162Z,26.50
2023-03-04T11:09:08.113Z,23.30
2023-03-04T11:11:54.760Z,21.30
2023-03-04T11:14:35.184Z,18.80
2023-03-04T11:17:22.415Z,19.30
2023-03-04T11:19:59.222Z,19.60
2023-03-04T11:22:32.671Z,21.90
2023-03-04T11:25:08.137Z,22.50
2023-03-04T11:27:46.096Z,27.10
2023-03-04T11:30:35.661Z,23.20
2023-03-04T11:33:15.450Z,27.50
2023-03-04T11:35:58.495Z,19.40
2023-03-04T11:38:37.813Z,28.20
2023-03-04T11:41:16.480Z,16.70
2023-03-04T11:43:49.733Z,22.00
2023-03-04T11:46:55.487Z,21.00
2023-03-04T11:50:05.458Z,17.80
2023-03-04T11:52:56.460Z,14.30
2023-03-04T11:55:45.259Z,18.80
2023-03-04T11:58:49.224Z,19.10
2023-03-04T12:01:50.603Z,22.20
2023-03-04T12:04:42.802Z,14.90
2023-03-04T12:07:23.610Z,24.70
2023-03-04T12:10:06.098Z,18.80
2023-03-04T12:12:53.142Z,19.00
2023-03-04T12:15:35.066Z,20.90
2023-03-04T12:18:29.869Z,15.60
2023-03-04T12:21:45.823Z,19.20
2023-03-04T12:24:35.994Z,18.90
2023-03-04T12:27:16.921Z,17.80
2023-03-04T12:29:57.364Z,17.60
2023-03-04T12:32:37.738Z,24.80
2023-03-04T12:35:24.600Z,20.40
2023-03-04T12:38:06.313Z,16.60
2023-03-04T12:40:44.667Z,15.80
2023-03-04T12:43:34.392Z,18.00
2023-03-04T12:46:22.652Z,15.50
2023-03-04T12:49:20.927Z,14.40
2023-03-04T12:52:01.604Z,19.90
2023-03-04T12:54:36.071Z,15.50
2023-03-04T12:57:12.809Z,12.60
2023-03-04T12:59:51.023Z,14.50
2023-03-04T13:02:35.806Z,19.10
2023-03-04T13:05:37.041Z,15.80
2023-03-04T13:08:23.148Z,13.00
2023-03-04T13:10:58.563Z,16.00
2023-03-04T13:16:36.799Z,12.90
2023-03-04T13:19:45.049Z,11.30
2023-03-04T13:22:46.538Z,14.00
2023-03-04T13:25:45.309Z,16.50
2023-03-04T13:28:28.410Z,10.60
2023-03-04T13:31:20.579Z,13.80
2023-03-04T13:33:55.570Z,10.40
2023-03-04T13:36:47.824Z,9.10
2023-03-04T13:39:36.175Z,5.20
2023-03-04T13:42:41.460Z,3.30
2023-03-04T13:45:39.208Z,14.00
2023-03-04T13:48:27.843Z,5.30
2023-03-04T13:51:00.216Z,6.70
2023-03-04T13:53:41.578Z,5.80
2023-03-04T13:56:37.467Z,4.70
2023-03-04T13:59:31.498Z,4.90
2023-03-04T14:02:05.371Z,5.60
2023-03-04T14:04:39.292Z,5.80
2023-03-04T14:07:25.456Z,3.20
2023-03-04T14:10:08.019Z,7.80
2023-03-04T14:12:45.912Z,4.30
2023-03-04T14:15:25.611Z,4.90
2023-03-04T14:17:59.534Z,9.30
2023-03-04T14:20:33.184Z,6.60
2023-03-04T14:23:06.564Z,6.80
2023-03-04T14:25:38.890Z,8.00
2023-03-04T14:28:16.835Z,7.80
2023-03-04T14:30:54.935Z,7.70
2023-03-04T14:33:31.354Z,5.00
2023-03-04T14:36:04.061Z,5.30
2023-03-04T14:38:38.205Z,5.60
2023-03-04T14:41:11.822Z,7.70
2023-03-04T14:43:59.756Z,7.70
2023-03-04T14:46:51.271Z,8.30
2023-03-04T14:49:28.766Z,7.60
2023-03-04T14:52:01.389Z,4.60
2023-03-04T14:54:36.306Z,8.30
2023-03-04T14:57:26.714Z,6.10
2023-03-04T14:59:57.731Z,6.00
2023-03-04T15:02:33.327Z,5.00
2023-03-04T15:05:16.925Z,4.40
2023-03-04T15:07:54.880Z,6.90
2023-03-04T15:10:45.756Z,5.00
2023-03-04T15:13:19.363Z,3.90
2023-03-04T15:15:50.376Z,5.30
2023-03-04T15:18:26.592Z,6.70
2023-03-04T15:21:03.453Z,3.90
2023-03-04T15:23:35.499Z,3.70
2023-03-04T15:26:10.890Z,7.00
2023-03-04T15:31:21.028Z,3.20
2023-03-04T15:33:52.613Z,3.10
2023-03-04T15:36:24.981Z,3.70
2023-03-04T15:38:56.226Z,3.90
2023-03-04T15:41:28.399Z,3.40
2023-03-04T15:43:59.302Z,5.10
2023-03-04T15:46:30.510Z,7.30
2023-03-04T15:49:03.574Z,5.50
2023-03-04T15:51:34.730Z,5.70
2023-03-04T15:54:05.945Z,4.80
2023-03-04T15:56:37.687Z,6.10
2023-03-04T15:59:13.460Z,3.40
2023-03-04T16:01:45.013Z,3.80
2023-03-04T16:04:18.004Z,12.90
2023-03-04T16:06:50.374Z,3.90
2023-03-04T16:09:22.991Z,2.10
2023-03-04T16:11:56.515Z,3.90
2023-03-04T16:14:27.453Z,5.00
2023-03-04T16:16:59.473Z,3.90
2023-03-04T16:19:31.690Z,4.40
2023-03-04T16:22:02.955Z,3.60
2023-03-04T16:24:36.120Z,3.10
2023-03-04T16:27:11.255Z,5.80
2023-03-04T16:29:43.135Z,7.00
2023-03-04T16:32:16.517Z,16.00
2023-03-04T16:34:47.896Z,4.70
2023-03-04T16:37:21.521Z,3.30
2023-03-04T16:39:54.864Z,5.30
2023-03-04T16:42:27.284Z,6.90
2023-03-04T16:44:58.320Z,2.70
2023-03-04T16:47:29.709Z,6.80
2023-03-04T16:50:00.591Z,7.30
2023-03-04T16:52:33.952Z,4.40
2023-03-04T16:55:05.037Z,6.10
2023-03-04T16:57:36.026Z,5.80
2023-03-04T17:00:12.867Z,9.40
2023-03-04T17:02:44.316Z,5.80
2023-03-04T17:05:19.594Z,6.90
2023-03-04T17:07:51.690Z,3.90
2023-03-04T17:10:23.641Z,4.70
2023-03-04T17:12:58.889Z,6.80
2023-03-04T17:15:31.476Z,4.30
2023-03-04T17:18:04.021Z,4.30
2023-03-04T17:20:36.134Z,6.00
2023-03-04T17:23:07.704Z,3.00
2023-03-04T17:25:38.635Z,9.20
2023-03-04T17:28:09.618Z,8.40
2023-03-04T17:30:40.666Z,6.30
2023-03-04T17:33:11.575Z,3.20
2023-03-04T17:35:42.606Z,4.40
2023-03-04T17:38:13.602Z,5.20
2023-03-04T17:40:44.707Z,4.90
2023-03-04T17:43:15.683Z,7.20
2023-03-04T17:45:47.348Z,6.30
2023-03-04T17:48:18.249Z,4.30
2023-03-04T17:50:54.054Z,3.30
2023-03-04T17:53:25.047Z,3.60
2023-03-04T17:56:00.330Z,4.70
2023-03-04T17:58:32.488Z,9.10
2023-03-04T18:01:06.079Z,5.30
2023-03-04T18:03:38.176Z,4.80
2023-03-04T18:06:10.631Z,8.50
2023-03-04T18:08:41.606Z,11.30
2023-03-04T18:11:12.926Z,8.30
2023-03-04T18:13:44.807Z,8.00
2023-03-04T18:16:23.675Z,8.90
2023-03-04T18:18:57.824Z,5.00
2023-03-04T18:21:35.658Z,4.40
2023-03-04T18:24:07.228Z,7.20
2023-03-04T18:26:40.881Z,5.40
2023-03-04T18:29:11.930Z,6.00
2023-03-04T18:31:43.414Z,7.00
2023-03-04T18:34:14.474Z,3.70
2023-03-04T18:36:47.670Z,8.40
2023-03-04T18:39:18.754Z,4.60
2023-03-04T18:41:49.848Z,7.20
2023-03-04T18:44:20.768Z,5.20
2023-03-04T18:46:54.672Z,6.90
2023-03-04T18:49:25.974Z,5.90
2023-03-04T18:51:57.395Z,3.90
2023-03-04T18:54:28.386Z,7.40
2023-03-04T18:57:02.088Z,6.00
2023-03-04T18:59:37.158Z,10.70
2023-03-04T19:02:14.710Z,16.10
2023-03-04T19:04:45.865Z,7.00
2023-03-04T19:07:16.728Z,9.20
2023-03-04T19:09:47.770Z,5.50
2023-03-04T19:12:18.696Z,8.50
2023-03-04T19:14:49.745Z,7.50
2023-03-04T19:17:20.668Z,3.80
2023-03-04T19:19:51.595Z,3.40
2023-03-04T19:22:22.863Z,8.20
2023-03-04T19:24:53.999Z,6.60
2023-03-04T19:27:24.909Z,6.60
2023-03-04T19:29:55.908Z,3.60
2023-03-04T19:32:27.404Z,6.60
2023-03-04T19:34:58.543Z,8.00
2023-03-04T19:37:29.478Z,6.40
2023-03-04T19:40:01.581Z,8.20
2023-03-04T19:42:34.263Z,5.70
2023-03-04T19:45:09.496Z,4.90
2023-03-04T19:47:41.343Z,3.40
2023-03-04T19:50:16.305Z,4.40
2023-03-04T19:52:53.901Z,3.80
2023-03-04T19:55:25.534Z,6.90
2023-03-04T19:57:56.462Z,10.40
2023-03-04T20:00:27.479Z,9.20
2023-03-04T20:03:01.876Z,5.40
2023-03-04T20:05:41.915Z,4.90
2023-03-04T20:08:13.010Z,5.40
2023-03-04T20:10:49.255Z,4.50
2023-03-04T20:13:21.819Z,4.50
2023-03-04T20:15:52.644Z,6.00
2023-03-04T20:18:23.488Z,8.00
2023-03-04T20:20:56.917Z,6.20
2023-03-04T20:23:29.316Z,9.40
2023-03-04T20:43:02.539Z,10.50
2023-03-04T20:45:36.287Z,12.30
2023-03-04T20:48:09.729Z,7.10
2023-03-04T20:50:41.646Z,9.90
2023-03-04T20:53:13.576Z,10.50
2023-03-04T20:55:44.566Z,10.00
2023-03-04T20:58:15.769Z,6.30
2023-03-04T21:00:53.057Z,9.10
2023-03-04T21:03:24.257Z,9.20
2023-03-04T21:06:03.536Z,9.00
2023-03-04T21:08:35.784Z,9.80
2023-03-04T21:11:14.254Z,8.80
2023-03-04T21:14:13.286Z,7.50
2023-03-04T21:16:46.705Z,11.20
2023-03-04T21:19:19.777Z,11.40
2023-03-04T21:21:52.880Z,9.80
2023-03-04T21:24:25.716Z,10.10
2023-03-04T21:27:09.590Z,8.20
2023-03-04T21:29:42.180Z,7.80
2023-03-04T21:32:25.589Z,13.70
2023-03-04T21:34:57.195Z,9.00
2023-03-04T21:37:28.376Z,5.10
2023-03-04T21:40:01.438Z,4.30
2023-03-04T21:42:32.599Z,5.80
2023-03-04T21:45:04.119Z,5.60
2023-03-04T21:47:49.288Z,5.30
2023-03-04T21:50:27.947Z,9.60
2023-03-04T21:56:29.303Z,3.80
2023-03-04T21:59:06.536Z,6.20
2023-03-04T22:01:51.568Z,4.00
2023-03-04T22:06:53.612Z,5.00
2023-03-04T22:09:31.190Z,6.40
2023-03-04T22:12:02.298Z,9.00
2023-03-04T22:14:33.217Z,13.90
2023-03-04T22:17:12.037Z,11.10
2023-03-04T22:19:46.964Z,6.10
2023-03-04T22:22:19.163Z,10.90
2023-03-04T22:25:01.441Z,6.40
2023-03-04T22:27:35.284Z,6.30
2023-03-04T22:30:07.438Z,8.70
2023-03-04T22:32:41.234Z,6.40
2023-03-04T22:35:13.578Z,10.20
2023-03-04T22:37:47.470Z,9.70
2023-03-04T22:40:18.733Z,11.50
2023-03-04T22:42:59.871Z,8.50
2023-03-04T22:45:35.964Z,12.20
2023-03-04T22:48:07.489Z,6.20
2023-03-04T22:50:38.540Z,11.30
2023-03-04T22:53:09.334Z,8.80
2023-03-04T22:55:40.096Z,8.00
2023-03-04T22:58:10.867Z,6.00
2023-03-04T23:00:41.696Z,9.50
2023-03-04T23:03:12.880Z,9.70
2023-03-04T23:05:43.709Z,7.90
2023-03-04T23:08:14.443Z,8.90
2023-03-04T23:10:45.859Z,8.30
2023-03-04T23:13:18.500Z,10.60
2023-03-04T23:15:50.337Z,7.50
2023-03-04T23:18:21.081Z,8.50
2023-03-04T23:20:51.839Z,7.10
2023-03-04T23:23:25.359Z,9.60
2023-03-04T23:25:56.035Z,7.30
2023-03-04T23:28:26.864Z,8.10
2023-03-04T23:30:59.683Z,10.60
2023-03-04T23:33:31.992Z,12.00
2023-03-04T23:36:04.866Z,11.10
2023-03-04T23:38:35.684Z,10.60
2023-03-04T23:41:07.064Z,13.80
2023-03-04T23:43:37.871Z,12.90
2023-03-04T23:46:11.696Z,11.00
2023-03-04T23:48:46.431Z,12.80
2023-03-04T23:51:19.513Z,16.10
2023-03-04T23:53:51.543Z,10.20
2023-03-04T23:56:25.188Z,9.60
2023-03-04T23:58:56.695Z,12.50
